Time;durP1;ratioP1;P1;durP2;ratioP2;P2;SDS_P1;SDS_P2;PMS_P1;PMS_P2;Temp;Humidity;BMP_temperature;BMP_pressure;BME280_temperature;BME280_humidity;BME280_pressure;Samples;Min_cycle;Max_cycle;Signal;HPM_P1;HPM_P2
2022/04/02 00:00:03;;;;;;;4.60;4.20;;;;;;;14.27;51.19;95298.38;4900685;29;20973;-85
2022/04/02 00:02:30;;;;;;;4.43;4.03;;;;;;;11.88;51.61;94824.81;4899669;29;20201;-84
2022/04/02 00:04:56;;;;;;;4.77;4.30;;;;;;;14.00;50.86;95232.94;4899752;29;20218;-84
2022/04/02 00:07:23;;;;;;;3.93;3.63;;;;;;;12.83;50.38;94965.47;4866474;29;20254;-84
2022/04/02 00:09:50;;;;;;;4.57;4.17;;;;;;;17.53;50.97;95750.63;4876619;29;20202;-89
2022/04/02 00:12:30;;;;;;;4.57;4.17;;;;;;;17.35;51.48;95793.44;4920891;29;20208;-91
2022/04/02 00:15:12;;;;;;;4.93;4.53;;;;;;;17.55;51.73;95748.09;4926826;29;20219;-91
2022/04/02 00:17:45;;;;;;;4.37;3.97;;;;;;;15.40;50.74;95407.84;4912012;29;20214;-91
2022/04/02 00:20:17;;;;;;;4.50;4.10;;;;;;;17.78;51.00;95792.53;4916286;29;20205;-90
2022/04/02 00:26:35;;;;;;;4.87;4.47;;;;;;;9.84;51.08;94438.84;4913036;23;20260;-88
2022/04/02 00:29:02;;;;;;;5.63;5.13;;;;;;;16.07;51.00;95534.88;4906601;29;20209;-88
2022/04/02 00:31:29;;;;;;;4.93;4.50;;;;;;;14.82;51.12;95315.53;4927278;29;20287;-88
2022/04/02 00:33:56;;;;;;;5.00;4.50;;;;;;;16.69;50.93;95616.31;4928466;29;20209;-79
2022/04/02 00:36:23;;;;;;;5.97;4.63;;;;;;;17.67;50.87;95832.13;4909923;29;20222;-80
2022/04/02 00:38:52;;;;;;;5.20;4.53;;;;;;;9.46;50.41;94413.59;4893664;29;20241;-80
2022/04/02 00:41:19;;;;;;;5.47;4.20;;;;;;;19.09;50.84;96019.31;4909417;29;20680;-80
2022/04/02 00:43:57;;;;;;;4.97;4.57;;;;;;;16.83;50.81;95670.66;4913075;29;20217;-80
2022/04/02 00:46:26;;;;;;;4.63;4.23;;;;;;;19.11;50.97;96024.44;4912797;29;20233;-80
2022/04/02 00:48:54;;;;;;;5.17;4.67;;;;;;;14.54;50.80;95332.66;4913199;29;20607;-80
2022/04/02 00:51:21;;;;;;;4.70;4.10;;;;;;;15.12;50.58;95415.66;4927390;29;20220;-80
2022/04/02 00:53:49;;;;;;;5.27;4.43;;;;;;;19.12;50.77;96027.00;4914477;29;20312;-80
2022/04/02 00:56:15;;;;;;;4.73;4.33;;;;;;;18.05;50.54;95881.94;4909211;29;20233;-79
2022/04/02 00:58:43;;;;;;;6.33;4.60;;;;;;;16.52;50.86;95595.72;4924719;29;20233;-79
2022/04/02 01:01:10;;;;;;;4.60;4.20;;;;;;;18.79;50.90;95969.63;4920570;29;20214;-81
2022/04/02 01:03:36;;;;;;;4.93;4.50;;;;;;;19.16;50.94;96038.09;4922816;29;20201;-79
2022/04/02 01:06:04;;;;;;;5.07;4.40;;;;;;;19.16;50.88;96033.84;4910835;29;20233;-80
2022/04/02 01:08:34;;;;;;;6.47;4.20;;;;;;;19.16;50.81;96035.56;4897047;29;20266;-79
2022/04/02 01:11:00;;;;;;;4.87;4.37;;;;;;;19.18;50.90;96036.41;4912229;29;20209;-79
2022/04/02 01:13:30;;;;;;;5.17;4.67;;;;;;;19.18;50.93;96036.41;4896306;29;20205;-79
2022/04/02 01:15:57;;;;;;;7.03;4.20;;;;;;;19.17;50.80;96034.72;4893035;29;20250;-79
2022/04/02 01:18:40;;;;;;;5.00;4.50;;;;;;;19.19;50.78;96048.34;4885829;29;20244;-80
2022/04/02 01:21:13;;;;;;;4.90;4.20;;;;;;;18.02;50.69;95854.78;4921186;29;20206;-80
2022/04/02 01:23:42;;;;;;;5.17;4.60;;;;;;;14.66;50.85;95327.88;4927109;29;20219;-80
2022/04/02 01:26:12;;;;;;;7.43;4.23;;;;;;;13.82;50.87;95178.66;4912017;29;20265;-81
2022/04/02 01:28:40;;;;;;;5.07;4.57;;;;;;;19.18;50.88;96044.91;4912657;29;20636;-80
2022/04/02 01:31:07;;;;;;;5.03;4.40;;;;;;;17.73;50.79;95828.03;4896248;29;20210;-79
2022/04/02 01:33:35;;;;;;;4.93;4.20;;;;;;;17.25;50.77;95767.84;4896751;29;20884;-80
2022/04/02 01:36:04;;;;;;;4.87;4.30;;;;;;;19.18;50.88;96057.66;4911419;29;20261;-80
2022/04/02 01:38:35;;;;;;;4.80;4.30;;;;;;;18.72;50.82;95983.09;4911808;29;20660;-79
2022/04/02 01:41:02;;;;;;;5.97;4.60;;;;;;;19.18;50.72;96055.09;4911511;29;20272;-80
2022/04/02 01:43:29;;;;;;;4.70;4.20;;;;;;;19.16;50.86;96066.94;4913176;29;20272;-80
2022/04/02 01:45:56;;;;;;;4.13;3.73;;;;;;;19.17;50.94;96058.50;4913215;29;20237;-79
2022/04/02 01:48:31;;;;;;;5.00;4.03;;;;;;;19.18;50.84;96061.88;4911966;29;20209;-80
2022/04/02 01:51:00;;;;;;;5.23;4.33;;;;;;;19.18;50.87;96064.41;4908249;29;20218;-79
2022/04/02 01:53:30;;;;;;;7.27;4.20;;;;;;;19.16;50.82;96066.94;4900447;29;20206;-80
2022/04/02 01:55:59;;;;;;;5.70;4.60;;;;;;;15.91;50.90;95506.69;4921962;29;20233;-79
2022/04/02 01:58:31;;;;;;;6.37;4.40;;;;;;;19.16;50.92;96064.41;4911519;29;20688;-80
2022/04/02 02:00:58;;;;;;;4.40;4.00;;;;;;;19.17;51.07;96067.81;4914316;29;20206;-80
2022/04/02 02:03:25;;;;;;;4.53;4.13;;;;;;;18.05;50.93;95892.97;4911894;29;20782;-79
2022/04/02 02:05:53;;;;;;;5.43;4.20;;;;;;;19.16;50.92;96066.13;4911311;29;20577;-80
2022/04/02 02:08:20;;;;;;;6.50;4.20;;;;;;;19.16;50.78;96068.66;4912582;29;20703;-79
2022/04/02 02:10:51;;;;;;;5.27;3.73;;;;;;;19.15;50.71;96100.88;4911186;29;20201;-88
2022/04/02 02:13:23;;;;;;;6.77;3.97;;;;;;;18.61;50.80;95976.97;4912841;29;20249;-88
2022/04/02 02:15:50;;;;;;;5.73;4.30;;;;;;;19.14;51.03;96061.00;4927011;29;20216;-88
2022/04/02 02:18:16;;;;;;;6.43;4.43;;;;;;;19.14;51.07;96071.19;4912493;29;20205;-88
2022/04/02 02:20:43;;;;;;;4.30;3.90;;;;;;;19.15;50.98;96072.88;4912182;29;20245;-88
2022/04/02 02:23:10;;;;;;;5.00;4.13;;;;;;;19.13;50.87;96077.09;4912990;29;20213;-89
2022/04/02 02:25:40;;;;;;;4.90;3.80;;;;;;;19.14;51.18;96076.28;4895136;29;20211;-88
2022/04/02 02:28:06;;;;;;;4.77;3.93;;;;;;;14.15;51.01;95288.81;4911615;29;20295;-89
2022/04/02 02:30:39;;;;;;;4.67;3.87;;;;;;;19.14;51.21;96083.03;4924168;29;20284;-89
2022/04/02 02:35:54;;;;;;;3.93;3.53;;;;;;;17.06;51.15;95741.31;4912243;29;20202;-88
2022/04/02 02:38:20;;;;;;;5.23;3.93;;;;;;;17.48;51.21;95807.25;4912319;29;20293;-88
2022/04/02 02:40:49;;;;;;;5.37;4.20;;;;;;;15.00;51.02;95392.63;4911993;29;20236;-88
2022/04/02 02:43:16;;;;;;;4.37;3.90;;;;;;;11.96;50.82;94895.44;4895189;29;20210;-89
2022/04/02 02:45:44;;;;;;;6.20;3.77;;;;;;;11.39;50.88;94763.19;4910882;29;20203;-88
2022/04/02 02:48:11;;;;;;;5.83;4.13;;;;;;;10.98;50.92;94724.47;4926890;29;20217;-89
2022/04/02 02:50:38;;;;;;;5.53;3.80;;;;;;;16.34;50.90;95601.28;4894879;29;20202;-88
2022/04/02 02:53:05;;;;;;;5.50;4.07;;;;;;;19.22;51.07;96087.41;4912305;29;21012;-89
2022/04/02 02:55:36;;;;;;;5.10;3.93;;;;;;;12.19;50.67;94891.78;4910456;29;20213;-89
2022/04/02 02:58:03;;;;;;;5.63;3.87;;;;;;;13.64;50.54;95148.84;4910644;29;20252;-79
2022/04/02 03:00:35;;;;;;;5.40;3.77;;;;;;;19.25;50.74;96084.06;4912031;29;20225;-79
2022/04/02 03:03:02;;;;;;;4.00;3.60;;;;;;;19.26;50.57;96091.75;4910909;29;20244;-79
2022/04/02 03:05:29;;;;;;;5.27;3.60;;;;;;;19.27;50.52;96090.94;4894596;29;20643;-79
2022/04/02 03:07:58;;;;;;;6.13;3.97;;;;;;;15.85;50.53;95532.75;4910378;29;20229;-80
2022/04/02 03:10:27;;;;;;;4.87;3.93;;;;;;;12.06;49.86;94912.44;4925440;29;20209;-80
2022/04/02 03:12:55;;;;;;;4.93;3.90;;;;;;;9.90;50.30;94491.66;4910518;29;20198;-80
2022/04/02 03:15:22;;;;;;;4.97;4.00;;;;;;;16.62;50.57;95655.94;4895412;29;20565;-79
2022/04/02 03:17:50;;;;;;;4.47;3.73;;;;;;;19.32;50.38;96103.72;4911114;29;20316;-79
2022/04/02 03:20:20;;;;;;;4.40;3.77;;;;;;;19.32;50.58;96101.19;4909854;29;20226;-80
2022/04/02 03:22:50;;;;;;;4.40;3.77;;;;;;;19.33;50.33;96103.75;4912169;29;20556;-79
2022/04/02 03:25:18;;;;;;;4.13;3.50;;;;;;;19.33;50.29;96106.31;4915070;29;20731;-80
2022/04/02 03:27:47;;;;;;;5.97;3.63;;;;;;;13.59;50.05;95122.66;4913451;29;20241;-79
2022/04/02 03:30:16;;;;;;;4.97;3.27;;;;;;;19.34;50.22;96104.63;4913380;29;20253;-79
2022/04/02 03:32:43;;;;;;;4.07;3.60;;;;;;;14.73;50.11;95335.56;4913006;29;20205;-79
2022/04/02 03:35:14;;;;;;;4.30;3.40;;;;;;;19.34;50.30;96107.16;4912836;29;20209;-79
2022/04/02 03:37:45;;;;;;;5.23;3.60;;;;;;;19.33;50.07;96106.31;4928325;29;20316;-79
2022/04/02 03:40:15;;;;;;;6.47;3.77;;;;;;;18.99;50.03;96055.66;4928140;29;20767;-79
2022/04/02 03:42:42;;;;;;;6.07;3.83;;;;;;;17.79;50.03;95850.13;4913919;29;20577;-79
2022/04/02 03:45:11;;;;;;;3.83;3.30;;;;;;;19.31;50.25;96107.13;4894116;29;20198;-80
2022/04/02 03:47:38;;;;;;;3.63;3.30;;;;;;;19.31;50.13;96109.66;4878737;29;20257;-80
2022/04/02 03:50:05;;;;;;;5.73;3.50;;;;;;;18.05;50.03;95902.25;4909563;29;20260;-78
2022/04/02 03:52:34;;;;;;;3.70;3.40;;;;;;;15.67;50.21;95531.53;4896817;29;20213;-79
2022/04/02 03:55:01;;;;;;;4.73;3.30;;;;;;;17.72;49.93;95850.84;4912966;29;20205;-79
2022/04/02 03:57:28;;;;;;;5.83;3.30;;;;;;;16.75;49.97;95693.34;4912666;29;20230;-79
2022/04/02 03:59:55;;;;;;;6.43;3.53;;;;;;;19.28;50.19;96117.25;4928008;29;20237;-80
2022/04/02 04:02:24;;;;;;;3.50;3.20;;;;;;;19.27;50.16;96120.66;4906753;29;20214;-79
2022/04/02 04:04:52;;;;;;;5.43;3.50;;;;;;;18.35;49.78;96001.94;4927111;29;20668;-80
2022/04/02 04:07:19;;;;;;;5.00;3.80;;;;;;;19.26;50.10;96126.53;4893373;29;20230;-79
2022/04/02 04:09:48;;;;;;;4.13;3.60;;;;;;;19.25;50.12;96130.78;4909542;29;20569;-79
2022/04/02 04:12:17;;;;;;;4.57;3.53;;;;;;;19.24;50.20;96131.59;4908858;29;20218;-78
2022/04/02 04:14:44;;;;;;;3.70;3.30;;;;;;;19.02;50.14;96095.56;4911719;29;20206;-81
2022/04/02 04:17:11;;;;;;;4.33;3.50;;;;;;;18.63;50.21;96047.44;4912206;29;20234;-79
2022/04/02 04:19:38;;;;;;;4.40;3.30;;;;;;;18.88;50.12;96084.28;4927521;29;20735;-79
2022/04/02 04:22:05;;;;;;;5.10;3.60;;;;;;;19.21;49.99;96143.41;4928114;29;20220;-79
2022/04/02 04:24:33;;;;;;;4.77;3.67;;;;;;;18.16;50.30;95982.97;4911936;29;20209;-79
2022/04/02 04:27:00;;;;;;;4.57;3.43;;;;;;;19.19;50.16;96151.03;4887718;29;1190802;-80
2022/04/02 04:29:29;;;;;;;5.67;3.60;;;;;;;19.19;50.20;96143.38;4915048;29;20583;-80
2022/04/02 04:31:58;;;;;;;3.97;3.30;;;;;;;19.18;50.19;96143.34;4908391;29;20206;-79
2022/04/02 04:34:27;;;;;;;4.37;3.23;;;;;;;19.18;50.35;96140.81;4911682;29;20288;-79
2022/04/02 04:36:54;;;;;;;3.50;3.20;;;;;;;16.95;50.13;95806.22;4912648;29;20715;-79
2022/04/02 04:39:21;;;;;;;3.40;3.10;;;;;;;16.71;50.32;95734.72;4914371;29;20708;-81
2022/04/02 04:41:48;;;;;;;6.73;3.73;;;;;;;18.70;50.10;96074.69;4914215;29;20273;-79
2022/04/02 04:44:15;;;;;;;4.83;3.47;;;;;;;17.56;50.11;95880.19;4928787;29;20206;-79
2022/04/02 04:46:43;;;;;;;4.73;3.47;;;;;;;19.14;50.33;96155.22;4897263;29;20779;-79
2022/04/02 04:49:12;;;;;;;4.23;3.20;;;;;;;17.32;50.16;95849.22;4913746;29;20212;-80
2022/04/02 04:51:44;;;;;;;5.57;3.53;;;;;;;14.59;50.05;95459.13;4927853;29;20767;-79
2022/04/02 04:54:17;;;;;;;3.70;3.40;;;;;;;18.36;50.25;96024.03;4912302;29;20256;-80
2022/04/02 04:56:47;;;;;;;3.70;3.30;;;;;;;19.13;50.54;96161.13;4913995;29;20600;-79
2022/04/02 04:59:16;;;;;;;4.57;3.67;;;;;;;17.54;50.22;95967.34;4914190;29;20233;-80
2022/04/02 05:01:43;;;;;;;4.67;3.27;;;;;;;19.12;50.39;96177.22;4888645;29;20240;-78
2022/04/02 05:04:16;;;;;;;4.53;3.30;;;;;;;19.13;50.36;96185.75;4918127;29;20248;-79
2022/04/02 05:06:49;;;;;;;4.20;3.50;;;;;;;16.63;50.31;95778.47;4900861;29;20341;-79
2022/04/02 05:09:16;;;;;;;4.00;3.40;;;;;;;19.11;50.18;96188.25;4905311;29;20300;-81
2022/04/02 05:11:48;;;;;;;6.17;3.77;;;;;;;18.26;50.05;96047.53;4908841;29;20565;-81
2022/04/02 05:14:16;;;;;;;6.07;3.37;;;;;;;19.12;50.50;96194.19;4907510;29;20213;-81
2022/04/02 05:16:43;;;;;;;4.90;3.37;;;;;;;19.10;50.22;96189.06;4900939;29;20308;-80
2022/04/02 05:19:10;;;;;;;4.23;3.07;;;;;;;19.10;50.23;96193.31;4901811;29;20205;-80
2022/04/02 05:21:37;;;;;;;5.67;3.37;;;;;;;19.09;50.54;96195.00;4904015;29;20823;-79
2022/04/02 05:24:03;;;;;;;3.63;3.27;;;;;;;17.91;50.09;96021.47;4900816;29;20478;-79
2022/04/02 05:26:33;;;;;;;4.37;3.40;;;;;;;19.09;50.21;96189.03;4895372;29;20241;-83
2022/04/02 05:29:04;;;;;;;4.47;3.47;;;;;;;10.98;49.67;94928.81;4915813;29;20250;-81
2022/04/02 05:31:36;;;;;;;3.90;3.23;;;;;;;15.05;50.05;95519.19;4924538;29;20209;-81
2022/04/02 05:34:12;;;;;;;3.97;3.17;;;;;;;9.68;49.42;94654.81;4907645;29;20205;-79
2022/04/02 05:36:43;;;;;;;4.17;3.47;;;;;;;9.93;48.97;94657.22;4924825;29;20236;-80
2022/04/02 05:39:10;;;;;;;4.73;3.67;;;;;;;12.41;49.11;95196.16;4915805;29;20292;-81
2022/04/02 05:41:49;;;;;;;4.77;3.67;;;;;;;18.02;48.83;96103.00;4914793;29;20208;-80
2022/04/02 05:44:22;;;;;;;6.13;3.63;;;;;;;12.12;48.32;95066.13;4914550;29;20206;-81
2022/04/02 05:46:49;;;;;;;6.20;3.83;;;;;;;16.33;48.38;95769.38;4931190;29;20280;-80
2022/04/02 05:49:38;;;;;;;3.53;3.03;;;;;;;9.30;48.26;94627.81;4907170;29;20274;-80
2022/04/02 05:52:05;;;;;;;5.97;3.87;;;;;;;13.46;48.50;95377.97;4894828;29;21086;-79
2022/04/02 05:54:34;;;;;;;4.57;3.63;;;;;;;18.61;47.78;96165.25;4903417;29;20694;-79
2022/04/02 05:57:08;;;;;;;8.13;4.03;;;;;;;13.00;46.02;95216.25;4912633;29;20233;-81
2022/04/02 05:59:35;;;;;;;9.73;5.13;;;;;;;15.83;42.29;95710.81;4894528;29;20288;-79
2022/04/02 06:02:07;;;;;;;10.67;5.10;;;;;;;14.65;40.81;95518.25;4901524;29;20210;-80
2022/04/02 06:04:37;;;;;;;12.30;5.20;;;;;;;18.98;40.07;96246.56;4914662;29;20305;-80
2022/04/02 06:07:04;;;;;;;13.80;5.57;;;;;;;13.37;40.10;95440.81;4903691;29;20273;-80
2022/04/02 06:09:31;;;;;;;16.23;5.40;;;;;;;18.94;39.65;96257.50;4904431;29;20213;-79
2022/04/02 06:11:57;;;;;;;18.03;5.70;;;;;;;18.00;39.14;96113.13;4926002;29;20233;-79
2022/04/02 06:14:24;;;;;;;10.30;5.37;;;;;;;18.00;38.66;96114.84;4909891;29;20296;-78
2022/04/02 06:16:50;;;;;;;10.93;5.53;;;;;;;18.23;38.95;96163.63;4911289;29;20759;-81
2022/04/02 06:19:19;;;;;;;9.57;5.50;;;;;;;17.96;39.00;96129.16;4908795;29;20273;-80
2022/04/02 06:21:46;;;;;;;9.90;5.97;;;;;;;17.23;38.99;95993.75;4905537;29;20627;-82
2022/04/02 06:24:12;;;;;;;10.00;5.40;;;;;;;18.11;39.20;96157.44;4898677;29;20248;-83
2022/04/02 06:26:39;;;;;;;13.40;6.30;;;;;;;18.62;38.80;96256.03;4928094;23;20652;-81
2022/04/02 06:29:06;;;;;;;11.20;6.33;;;;;;;18.53;38.39;96236.31;4861947;29;20285;-81
2022/04/02 06:31:32;;;;;;;12.13;6.43;;;;;;;18.39;38.10;96232.66;4862662;29;20293;-81
2022/04/02 06:33:59;;;;;;;15.57;6.33;;;;;;;18.39;38.30;96231.78;4889300;29;20198;-81
2022/04/02 06:36:26;;;;;;;10.57;6.33;;;;;;;18.57;38.17;96261.03;4879396;29;20296;-82
2022/04/02 06:38:53;;;;;;;11.67;6.27;;;;;;;18.61;38.17;96269.56;4894390;29;20313;-81
2022/04/02 06:41:19;;;;;;;12.10;7.07;;;;;;;18.62;37.82;96264.50;4894738;29;20794;-82
2022/04/02 06:43:46;;;;;;;10.57;5.87;;;;;;;18.58;38.48;96262.72;4887780;29;20289;-81
2022/04/02 06:46:13;;;;;;;10.37;6.80;;;;;;;18.49;38.35;96261.66;4892882;29;20302;-81
2022/04/02 06:48:40;;;;;;;11.47;6.87;;;;;;;18.34;38.20;96239.28;4863831;29;20707;-81
2022/04/02 06:51:07;;;;;;;18.73;6.40;;;;;;;18.37;38.80;96234.28;4894120;29;20229;-82
2022/04/02 06:53:34;;;;;;;11.27;6.13;;;;;;;18.62;39.46;96287.38;4892546;29;20272;-81
2022/04/02 06:56:01;;;;;;;13.17;5.87;;;;;;;18.53;40.46;96266.84;4894646;29;20210;-80
2022/04/02 06:58:30;;;;;;;7.90;5.40;;;;;;;18.53;41.28;96271.94;4878728;29;20731;-82
2022/04/02 07:00:57;;;;;;;8.03;5.70;;;;;;;18.62;41.48;96287.38;4876536;29;20285;-85
2022/04/02 07:03:24;;;;;;;6.27;5.30;;;;;;;18.60;42.02;96294.16;4864683;29;20334;-83
2022/04/02 07:05:51;;;;;;;9.10;5.30;;;;;;;18.51;42.13;96272.75;4871404;29;20258;-83
2022/04/02 07:08:18;;;;;;;9.87;5.33;;;;;;;18.55;42.72;96284.69;4863729;29;20229;-82
2022/04/02 07:10:44;;;;;;;8.43;5.30;;;;;;;18.62;43.22;96289.09;4889020;29;20206;-81
2022/04/02 07:13:11;;;;;;;11.50;6.10;;;;;;;18.56;43.00;96287.25;4894488;29;20240;-81
2022/04/02 07:15:38;;;;;;;9.47;5.13;;;;;;;18.49;43.27;96270.16;4894727;29;20213;-80
2022/04/02 07:18:09;;;;;;;7.33;4.67;;;;;;;18.53;43.34;96282.09;4894199;29;20782;-80
2022/04/02 07:20:37;;;;;;;5.40;4.60;;;;;;;18.70;43.75;96310.44;4870833;29;20254;-82
2022/04/02 07:23:04;;;;;;;10.50;4.70;;;;;;;18.59;43.82;96299.22;4889314;29;20240;-80
2022/04/02 07:25:31;;;;;;;5.60;4.37;;;;;;;18.42;44.15;96272.53;4894413;29;20219;-81
2022/04/02 07:27:58;;;;;;;5.13;4.10;;;;;;;18.77;44.15;96332.69;4894189;29;20260;-80
2022/04/02 07:30:25;;;;;;;7.50;4.50;;;;;;;18.70;44.23;96324.03;4894022;29;20304;-81
2022/04/02 07:32:51;;;;;;;6.13;4.30;;;;;;;18.65;44.16;96317.16;4880620;29;20945;-83
2022/04/02 07:35:18;;;;;;;5.53;4.13;;;;;;;18.66;44.40;96316.31;4897149;29;20233;-83
2022/04/02 07:37:51;;;;;;;5.60;4.03;;;;;;;18.80;44.34;96342.94;4895698;29;20249;-83
2022/04/02 07:40:25;;;;;;;9.27;5.10;;;;;;;18.62;43.57;96310.28;4895714;29;20304;-83
2022/04/02 07:43:01;;;;;;;13.10;5.20;;;;;;;18.54;42.33;96300.78;4880098;29;20645;-81
2022/04/02 07:45:32;;;;;;;6.20;4.87;;;;;;;18.66;42.90;96332.44;4896373;29;20349;-81
2022/04/02 07:47:59;;;;;;;9.93;5.20;;;;;;;18.60;42.66;96313.63;4873093;29;20234;-82
2022/04/02 07:50:26;;;;;;;11.43;4.87;;;;;;;18.77;43.20;96350.50;4865043;29;20232;-81
2022/04/02 07:52:54;;;;;;;11.80;5.40;;;;;;;18.75;42.79;96347.03;4878709;29;20638;-80
2022/04/02 07:55:21;;;;;;;10.57;5.27;;;;;;;18.66;43.01;96336.66;4879677;29;20206;-83
2022/04/02 07:57:51;;;;;;;9.47;5.23;;;;;;;18.68;43.16;96347.75;4880693;29;20233;-83
2022/04/02 08:00:21;;;;;;;9.63;5.40;;;;;;;18.58;43.21;96328.00;4880209;29;20221;-83
2022/04/02 08:02:48;;;;;;;8.63;5.17;;;;;;;18.68;43.48;96352.84;4878675;29;20651;-82
2022/04/02 08:05:16;;;;;;;6.10;4.90;;;;;;;18.72;43.57;96357.16;4907532;29;20205;-82
2022/04/02 08:07:49;;;;;;;10.17;4.93;;;;;;;18.59;43.97;96340.75;4860254;29;20226;-82
2022/04/02 08:10:17;;;;;;;9.43;4.87;;;;;;;18.75;44.14;96368.28;4897644;29;20202;-83
2022/04/02 08:12:44;;;;;;;6.93;4.53;;;;;;;18.59;44.31;96343.31;4893463;29;20210;-82
2022/04/02 08:15:16;;;;;;;7.80;4.13;;;;;;;18.63;44.26;96344.25;4848282;29;20300;-83
2022/04/02 08:17:44;;;;;;;6.83;4.57;;;;;;;18.67;44.62;96356.19;4861528;29;20300;-82
2022/04/02 08:20:12;;;;;;;8.87;5.30;;;;;;;18.71;43.57;96374.09;4877050;29;22534;-83
2022/04/02 08:22:38;;;;;;;9.13;5.03;;;;;;;18.63;43.10;96356.97;4872787;29;20225;-83
2022/04/02 08:25:05;;;;;;;7.17;4.47;;;;;;;18.60;43.59;96354.34;4881436;29;20213;-86
2022/04/02 08:27:33;;;;;;;5.83;4.70;;;;;;;18.86;43.92;96402.44;4891174;29;20316;-84
2022/04/02 08:30:07;;;;;;;8.97;4.53;;;;;;;18.87;43.96;96399.09;4897317;29;20294;-79
2022/04/02 08:32:58;;;;;;;9.67;6.57;;;;;;;18.63;39.53;96377.31;4886546;29;20303;-78
2022/04/02 08:35:37;;;;;;;13.93;6.87;;;;;;;18.70;38.00;96396.97;4899285;29;20285;-83
2022/04/02 08:38:07;;;;;;;13.07;7.60;;;;;;;18.79;37.70;96425.16;4899586;29;20300;-85
2022/04/02 08:41:02;;;;;;;9.80;7.53;;;;;;;18.74;37.54;96431.88;4906524;29;20300;-84
2022/04/02 08:43:48;;;;;;;11.27;7.13;;;;;;;18.68;37.10;96427.47;4885502;29;20270;-81
2022/04/02 08:46:35;;;;;;;12.03;7.87;;;;;;;18.64;37.51;96445.19;4863477;29;20652;-82
2022/04/02 08:49:23;;;;;;;10.03;7.07;;;;;;;18.30;37.62;96404.47;4890890;29;20820;-81
2022/04/02 08:52:12;;;;;;;11.23;7.00;;;;;;;18.54;37.57;96453.44;4892871;29;20204;-80
2022/04/02 08:54:40;;;;;;;11.23;7.40;;;;;;;18.36;37.79;96430.06;4896808;29;20244;-81
2022/04/02 08:57:18;;;;;;;10.47;7.07;;;;;;;18.47;37.59;96457.50;4881814;29;20316;-80
2022/04/02 08:59:45;;;;;;;10.00;7.20;;;;;;;18.34;37.50;96460.53;4913588;29;20237;-80
2022/04/02 09:02:30;;;;;;;9.87;7.20;;;;;;;18.41;37.71;96474.31;4897020;29;20320;-82
2022/04/02 09:05:10;;;;;;;8.47;7.03;;;;;;;18.37;37.54;96482.63;4913668;29;20289;-85
2022/04/02 09:08:04;;;;;;;10.80;7.30;;;;;;;18.33;37.79;96471.56;4894694;29;20308;-81
2022/04/02 09:10:38;;;;;;;12.40;7.07;;;;;;;18.17;38.03;96454.16;4912284;29;20241;-82
2022/04/02 09:13:38;;;;;;;10.90;7.47;;;;;;;18.29;37.79;96473.97;4877979;29;20209;-81
2022/04/02 09:16:06;;;;;;;10.50;7.40;;;;;;;18.05;38.27;96438.59;4883805;29;20234;-81
2022/04/02 09:18:49;;;;;;;11.97;7.57;;;;;;;18.10;37.36;96459.94;4881388;29;20643;-82
2022/04/02 09:21:22;;;;;;;9.77;7.20;;;;;;;18.23;38.02;96484.84;4897418;29;20255;-82
2022/04/02 09:23:55;;;;;;;10.47;7.87;;;;;;;18.20;37.98;96469.50;4897219;29;20225;-83
2022/04/02 09:26:59;;;;;;;11.63;7.30;;;;;;;18.17;38.54;96470.28;4913186;29;20212;-81
2022/04/02 09:29:30;;;;;;;9.07;6.40;;;;;;;18.17;39.60;96484.69;4911550;29;20233;-81
2022/04/02 09:32:17;;;;;;;9.43;6.03;;;;;;;18.01;40.10;96457.16;4882935;29;20206;-81
2022/04/02 09:34:43;;;;;;;8.30;6.00;;;;;;;18.15;40.77;96489.72;4879434;29;20593;-83
2022/04/02 09:37:41;;;;;;;11.73;6.50;;;;;;;18.16;40.54;96493.13;4908674;29;20261;-82
2022/04/02 09:40:11;;;;;;;8.83;6.17;;;;;;;18.16;40.84;96498.22;4894742;29;20209;-83
2022/04/02 09:42:44;;;;;;;7.10;6.00;;;;;;;17.94;41.27;96461.19;4897352;29;20672;-84
2022/04/02 09:45:18;;;;;;;7.67;5.57;;;;;;;18.03;41.28;96474.16;4897280;29;20245;-83
2022/04/02 09:47:48;;;;;;;7.20;6.03;;;;;;;18.20;41.80;96500.88;4898189;29;20746;-82
2022/04/02 09:50:25;;;;;;;7.83;6.10;;;;;;;17.96;41.89;96463.78;4912723;29;20265;-83
2022/04/02 09:53:13;;;;;;;5.83;5.23;;;;;;;18.24;42.16;96501.84;4882473;29;20315;-84
2022/04/02 09:55:40;;;;;;;7.20;5.53;;;;;;;18.28;43.21;96508.72;4913393;29;20207;-82
2022/04/02 09:58:32;;;;;;;8.23;5.43;;;;;;;18.30;45.73;96498.56;4912387;29;20256;-83
2022/04/02 10:01:06;;;;;;;10.93;5.60;;;;;;;18.08;45.01;96470.06;4899378;29;20245;-84
2022/04/02 10:03:48;;;;;;;9.87;7.20;;;;;;;18.15;40.71;96471.94;4892616;29;20582;-82
2022/04/02 10:06:22;;;;;;;8.23;7.40;;;;;;;18.22;38.96;96495.84;4891205;29;20253;-85
2022/04/02 10:09:09;;;;;;;11.20;7.90;;;;;;;18.27;39.22;96505.28;4889737;29;20221;-85
2022/04/02 10:11:55;;;;;;;9.67;7.00;;;;;;;18.10;39.64;96482.81;4913628;29;20663;-82
2022/04/02 10:14:24;;;;;;;9.87;6.87;;;;;;;18.00;40.05;96466.44;4881099;29;20206;-83
2022/04/02 10:16:55;;;;;;;9.83;6.93;;;;;;;17.85;39.83;96455.88;4881300;29;20312;-83
2022/04/02 10:19:30;;;;;;;10.47;7.50;;;;;;;18.09;40.88;96478.56;4881879;29;20209;-84
2022/04/02 10:21:58;;;;;;;12.90;7.57;;;;;;;18.24;41.43;96514.56;4896433;29;20228;-81
2022/04/02 10:24:25;;;;;;;12.43;7.70;;;;;;;17.94;41.69;96471.38;4896883;29;20245;-84
2022/04/02 10:26:56;;;;;;;13.50;7.37;;;;;;;18.08;41.54;96500.56;4896235;29;20300;-83
2022/04/02 10:29:51;;;;;;;9.40;6.93;;;;;;;18.26;42.11;96527.31;4881163;29;20293;-84
2022/04/02 10:32:33;;;;;;;10.03;7.20;;;;;;;18.27;42.30;96533.28;4895810;29;20269;-83
2022/04/02 10:35:07;;;;;;;10.73;6.97;;;;;;;18.13;42.22;96509.19;4881823;29;20229;-84
2022/04/02 10:37:42;;;;;;;11.70;6.67;;;;;;;17.95;42.76;96478.16;4897470;29;20232;-82
2022/04/02 10:40:10;;;;;;;14.97;7.27;;;;;;;17.98;42.50;96483.34;4895324;29;20209;-83
2022/04/02 10:42:42;;;;;;;11.83;6.93;;;;;;;18.17;42.85;96521.16;4881261;29;20300;-82
2022/04/02 10:45:12;;;;;;;9.53;5.97;;;;;;;18.10;42.63;96495.53;4881421;29;20336;-83
2022/04/02 10:48:05;;;;;;;12.63;6.73;;;;;;;18.32;42.86;96542.72;4881167;29;20261;-83
2022/04/02 10:50:31;;;;;;;11.50;6.23;;;;;;;17.86;42.88;96472.84;4895863;29;20288;-83
2022/04/02 10:53:02;;;;;;;9.63;5.87;;;;;;;18.23;43.38;96525.53;4880532;29;20241;-83
2022/04/02 10:55:29;;;;;;;11.10;5.73;;;;;;;18.11;43.25;96505.72;4895706;29;20281;-82
2022/04/02 10:57:59;;;;;;;11.90;5.77;;;;;;;18.28;43.17;96536.69;4879731;29;20232;-83
2022/04/02 11:00:26;;;;;;;9.77;5.30;;;;;;;18.08;42.97;96494.59;4884245;29;20210;-83
2022/04/02 11:03:01;;;;;;;9.03;5.60;;;;;;;18.20;43.24;96522.91;4870216;29;20333;-81
2022/04/02 11:05:29;;;;;;;11.40;5.97;;;;;;;18.34;42.98;96541.94;4856013;29;20297;-81
2022/04/02 11:08:05;;;;;;;8.47;5.30;;;;;;;18.25;43.22;96526.44;4855224;29;20317;-82
2022/04/02 11:10:35;;;;;;;9.00;5.70;;;;;;;18.10;43.10;96511.66;4878820;29;20205;-82
2022/04/02 11:13:04;;;;;;;8.53;5.50;;;;;;;18.13;42.92;96518.47;4878162;29;20202;-82
2022/04/02 11:15:36;;;;;;;11.07;5.97;;;;;;;17.93;43.12;96479.81;4863489;29;20278;-81
2022/04/02 11:18:03;;;;;;;7.23;5.27;;;;;;;18.50;43.51;96581.41;4852538;29;20663;-82
2022/04/02 11:20:30;;;;;;;7.10;4.93;;;;;;;18.40;43.39;96566.69;4895296;29;20954;-83
2022/04/02 11:23:16;;;;;;;5.80;4.73;;;;;;;18.27;43.51;96537.50;4895990;29;20696;-83
2022/04/02 11:25:50;;;;;;;8.30;4.70;;;;;;;18.28;43.65;96544.31;4882190;29;20364;-84
2022/04/02 11:28:21;;;;;;;6.43;4.60;;;;;;;18.21;43.37;96532.28;4896039;29;20240;-84
2022/04/02 11:30:49;;;;;;;5.30;4.50;;;;;;;18.55;43.75;96589.97;4895368;29;20568;-82
2022/04/02 11:33:17;;;;;;;6.87;4.90;;;;;;;18.35;43.33;96561.44;4895139;29;20209;-82
2022/04/02 11:35:44;;;;;;;5.13;4.30;;;;;;;18.57;43.68;96598.53;4893535;29;20241;-84
2022/04/02 11:38:27;;;;;;;8.13;4.80;;;;;;;18.58;43.73;96606.19;4889915;29;20264;-81
2022/04/02 11:41:41;;;;;;;6.33;3.80;;;;;;;18.59;44.19;96601.97;4902739;29;20245;-82
2022/04/02 11:44:11;;;;;;;5.10;3.60;;;;;;;18.60;43.91;96608.78;4887121;29;20241;-85
2022/04/02 11:47:04;;;;;;;7.53;4.07;;;;;;;18.61;44.02;96607.94;4892646;29;20233;-81
2022/04/02 11:49:31;;;;;;;6.93;4.50;;;;;;;18.62;44.20;96609.69;4894724;29;20257;-80
2022/04/02 11:52:12;;;;;;;11.47;4.50;;;;;;;18.41;44.19;96571.81;4907713;29;20197;-80
2022/04/02 11:54:44;;;;;;;6.97;4.43;;;;;;;18.64;44.16;96608.91;4864948;29;20236;-81